CAI weather

Cairo International Airport
Cairo, Cairo Governorate, Egypt

Public forecast

Using degrees Celsius for public forecast. Weather courtesy of forecast.io.

Current aviation weather report (METAR) for Cairo International Airport

Retrieved 2019/11/15 12:30 UTC (0 seconds ago):

HECA 151230Z 30009KT 9999 BKN025 26/11 Q1017 NOSIG

Aviation forecast (TAF) for Cairo International Airport

Retrieved 2019/11/15 12:18 UTC (7 minutes ago):

TAF COR HECA 151100Z 1512/1618 34012KT 9999 SCT025